Time;durP1;ratioP1;P1;durP2;ratioP2;P2;SDS_P1;SDS_P2;PMS_P1;PMS_P2;Temp;Humidity;BMP_temperature;BMP_pressure;BME280_temperature;BME280_humidity;BME280_pressure;Samples;Min_cycle;Max_cycle;Signal;HPM_P1;HPM_P2
2021/10/30 00:01:04;;;;;;;20.25;12.63;;;;;;;8.13;63.92;95738.84;4877995;29;20032;-78
2021/10/30 00:03:29;;;;;;;20.90;13.05;;;;;;;8.04;64.65;95745.19;4864217;29;20142;-77
2021/10/30 00:05:55;;;;;;;19.65;12.38;;;;;;;8.14;64.39;95750.84;4877447;29;20393;-77
2021/10/30 00:08:28;;;;;;;14.82;11.73;;;;;;;8.06;64.73;95746.59;4878569;29;20045;-78
2021/10/30 00:10:53;;;;;;;19.75;14.05;;;;;;;8.00;65.58;95733.63;4879999;29;20512;-77
2021/10/30 00:13:19;;;;;;;18.45;13.02;;;;;;;8.05;65.71;95728.66;4897669;29;20040;-77
2021/10/30 00:15:44;;;;;;;17.20;12.88;;;;;;;8.10;65.60;95739.25;4897633;29;20036;-77
2021/10/30 00:18:20;;;;;;;22.77;12.45;;;;;;;8.16;65.36;95733.31;4880757;29;20096;-77
2021/10/30 00:20:45;;;;;;;18.25;12.40;;;;;;;8.23;65.39;95731.53;4896073;29;20040;-78
2021/10/30 00:23:11;;;;;;;18.85;12.95;;;;;;;8.30;64.83;95734.16;4897952;29;20067;-77
2021/10/30 00:25:36;;;;;;;19.52;13.48;;;;;;;8.33;65.49;95733.75;4897004;29;20057;-77
2021/10/30 00:28:02;;;;;;;19.25;13.07;;;;;;;8.40;65.49;95730.22;4881026;29;20096;-77
2021/10/30 00:30:27;;;;;;;18.95;13.65;;;;;;;8.39;65.21;95727.81;4879988;29;20064;-77
2021/10/30 00:32:52;;;;;;;20.83;12.63;;;;;;;8.33;65.56;95719.00;4897484;29;20036;-77
2021/10/30 00:35:18;;;;;;;17.48;13.32;;;;;;;8.28;66.34;95711.00;4865191;29;20063;-77
2021/10/30 00:37:43;;;;;;;18.23;13.73;;;;;;;8.21;66.29;95725.75;4897488;29;20037;-77
2021/10/30 00:40:11;;;;;;;22.23;15.32;;;;;;;8.18;66.54;95717.56;4889482;23;20260;-77
2021/10/30 00:42:40;;;;;;;19.90;13.98;;;;;;;8.07;67.71;95718.91;4907182;29;20048;-77
2021/10/30 00:47:33;;;;;;;23.63;14.43;;;;;;;8.17;67.72;95719.34;4962360;23;20108;-78
2021/10/30 00:50:02;;;;;;;29.00;14.57;;;;;;;8.11;67.81;95710.53;4920319;29;20064;-77
2021/10/30 00:52:28;;;;;;;22.30;14.45;;;;;;;8.06;67.93;95717.31;4906712;29;20033;-77
2021/10/30 00:54:54;;;;;;;18.48;14.38;;;;;;;8.05;68.46;95706.16;4929147;29;20073;-77
2021/10/30 00:57:20;;;;;;;25.85;15.35;;;;;;;8.03;68.29;95710.72;4912239;29;20035;-77
2021/10/30 00:59:45;;;;;;;21.25;14.95;;;;;;;8.02;68.72;95713.53;4913202;29;20040;-77
2021/10/30 01:02:11;;;;;;;23.38;15.50;;;;;;;8.00;68.50;95713.72;4890480;29;20123;-77
2021/10/30 01:04:37;;;;;;;26.67;15.07;;;;;;;8.01;68.61;95709.34;4907336;29;20051;-78
2021/10/30 01:07:02;;;;;;;24.17;16.58;;;;;;;7.94;68.50;95703.31;4898216;29;20044;-77
2021/10/30 01:09:32;;;;;;;26.77;15.73;;;;;;;7.99;68.74;95711.31;4897277;29;20040;-77
2021/10/30 01:12:01;;;;;;;31.10;17.70;;;;;;;7.89;68.61;95706.50;4929174;23;20088;-77
2021/10/30 01:14:26;;;;;;;25.48;16.67;;;;;;;7.86;68.58;95706.88;4899138;29;20032;-77
2021/10/30 01:17:02;;;;;;;24.92;16.00;;;;;;;7.85;69.13;95701.91;4874804;29;20040;-78
2021/10/30 01:19:28;;;;;;;28.98;17.92;;;;;;;7.80;69.38;95708.44;4915312;29;20088;-78
2021/10/30 01:21:53;;;;;;;23.40;16.88;;;;;;;7.72;70.56;95700.03;4899075;29;20059;-78
2021/10/30 01:24:19;;;;;;;25.35;18.38;;;;;;;7.76;70.82;95701.25;4915307;29;20040;-78
2021/10/30 01:26:45;;;;;;;26.00;17.73;;;;;;;7.76;70.18;95703.84;4916165;29;20036;-78
2021/10/30 01:29:10;;;;;;;29.08;18.52;;;;;;;7.78;70.00;95705.22;4916311;29;20032;-78
2021/10/30 01:31:35;;;;;;;24.00;18.42;;;;;;;7.69;70.58;95697.84;4899430;29;20040;-78
2021/10/30 01:34:05;;;;;;;33.42;19.52;;;;;;;7.64;70.88;95700.97;4882189;29;20039;-78
2021/10/30 01:36:31;;;;;;;25.35;19.63;;;;;;;7.69;70.45;95701.22;4916119;29;20036;-78
2021/10/30 01:39:06;;;;;;;34.50;20.23;;;;;;;7.66;71.31;95706.78;4888753;29;20036;-77
2021/10/30 01:41:32;;;;;;;30.00;21.02;;;;;;;7.61;71.32;95703.97;4914806;29;20179;-77
2021/10/30 01:43:58;;;;;;;25.92;20.60;;;;;;;7.55;72.01;95702.13;4923328;29;20685;-77
2021/10/30 01:46:24;;;;;;;26.52;19.35;;;;;;;7.52;72.73;95703.31;4926776;29;20461;-77
2021/10/30 01:48:50;;;;;;;35.90;21.10;;;;;;;7.56;72.43;95701.16;4925226;29;20099;-77
2021/10/30 01:51:15;;;;;;;29.95;20.08;;;;;;;7.58;72.27;95703.53;4884052;29;20036;-78
2021/10/30 01:53:41;;;;;;;29.05;20.48;;;;;;;7.54;72.60;95697.97;4915432;29;20036;-77
2021/10/30 01:56:06;;;;;;;32.15;22.27;;;;;;;7.54;72.73;95695.38;4899220;29;20036;-77
2021/10/30 01:58:32;;;;;;;32.53;22.50;;;;;;;7.52;72.95;95697.34;4886224;29;20024;-78
2021/10/30 02:00:58;;;;;;;30.85;22.17;;;;;;;7.49;72.96;95701.13;4879359;29;20040;-77
2021/10/30 02:03:23;;;;;;;29.98;22.40;;;;;;;7.60;72.87;95699.78;4919980;29;20033;-77
2021/10/30 02:05:52;;;;;;;34.42;21.20;;;;;;;7.57;73.08;95700.16;4891915;29;20036;-77
2021/10/30 02:08:20;;;;;;;28.73;20.90;;;;;;;7.59;72.91;95697.38;4898472;29;20036;-77
2021/10/30 02:10:49;;;;;;;28.48;20.67;;;;;;;7.57;73.27;95700.16;4993340;23;20155;-77
2021/10/30 02:13:15;;;;;;;29.23;21.15;;;;;;;7.59;73.27;95700.75;4928743;29;20118;-77
2021/10/30 02:15:41;;;;;;;30.77;22.58;;;;;;;7.58;73.26;95701.75;4907974;29;20040;-78
2021/10/30 02:18:06;;;;;;;35.17;21.65;;;;;;;7.53;73.44;95697.16;4931843;29;20119;-78
2021/10/30 02:20:32;;;;;;;34.33;22.92;;;;;;;7.52;73.36;95690.38;4908061;29;20092;-78
2021/10/30 02:22:58;;;;;;;34.53;23.10;;;;;;;7.56;73.28;95700.34;4907010;29;20040;-78
2021/10/30 02:25:23;;;;;;;33.85;21.95;;;;;;;7.59;73.05;95694.78;4923062;29;20039;-77
2021/10/30 02:27:49;;;;;;;32.45;22.63;;;;;;;7.60;72.91;95697.19;4907716;29;20127;-77
2021/10/30 02:30:15;;;;;;;36.22;21.58;;;;;;;7.68;72.37;95694.44;4923466;29;20551;-78
2021/10/30 02:32:41;;;;;;;35.40;22.30;;;;;;;7.80;71.77;95699.84;4891058;29;20036;-77
2021/10/30 02:35:07;;;;;;;32.42;21.15;;;;;;;7.82;71.69;95698.69;4923396;29;20032;-78
2021/10/30 02:37:32;;;;;;;25.02;20.55;;;;;;;7.89;71.09;95700.50;4947463;29;20099;-78
2021/10/30 02:39:58;;;;;;;34.25;23.63;;;;;;;7.81;71.04;95709.25;4937602;29;20039;-77
2021/10/30 02:42:25;;;;;;;28.45;21.30;;;;;;;7.82;71.16;95700.50;4922691;29;20043;-77
2021/10/30 02:44:51;;;;;;;31.48;22.00;;;;;;;7.83;70.74;95708.06;4923193;29;20048;-78
2021/10/30 02:47:16;;;;;;;41.63;22.73;;;;;;;7.83;71.22;95704.69;4923700;29;20481;-77
2021/10/30 02:49:42;;;;;;;38.40;24.15;;;;;;;7.80;71.09;95703.25;4922914;29;20044;-77
2021/10/30 02:52:07;;;;;;;30.73;21.13;;;;;;;7.88;70.53;95704.09;4925119;29;20484;-77
2021/10/30 02:54:32;;;;;;;27.88;20.92;;;;;;;7.92;70.85;95711.28;4924625;29;20040;-77
2021/10/30 02:56:58;;;;;;;29.38;21.30;;;;;;;7.91;70.09;95708.88;4892307;29;20103;-77
2021/10/30 02:59:23;;;;;;;31.10;20.35;;;;;;;7.90;70.25;95707.28;4922960;29;20087;-77
2021/10/30 03:01:49;;;;;;;31.88;21.27;;;;;;;7.93;70.20;95701.72;4923729;29;20035;-77
2021/10/30 03:04:14;;;;;;;40.05;21.95;;;;;;;7.93;69.87;95705.09;4922028;29;20036;-77
2021/10/30 03:06:40;;;;;;;32.20;20.40;;;;;;;7.94;69.88;95708.50;4928866;29;20525;-77
2021/10/30 03:09:07;;;;;;;29.77;20.88;;;;;;;7.95;70.12;95707.50;4922522;29;20040;-77
2021/10/30 03:11:33;;;;;;;34.38;20.35;;;;;;;7.91;69.39;95698.53;4922170;29;20392;-77
2021/10/30 03:14:04;;;;;;;30.20;18.73;;;;;;;7.89;70.10;95701.31;4923050;29;20468;-77
2021/10/30 03:16:32;;;;;;;29.45;20.45;;;;;;;7.97;69.90;95708.94;4924362;23;20052;-77
2021/10/30 03:18:58;;;;;;;27.88;20.30;;;;;;;8.01;69.36;95706.75;4913845;29;20536;-77
2021/10/30 03:21:23;;;;;;;30.85;20.08;;;;;;;8.07;69.75;95703.38;4896949;29;20040;-77
2021/10/30 03:23:49;;;;;;;35.95;22.73;;;;;;;8.12;68.60;95701.78;4881141;29;20036;-77
2021/10/30 03:26:15;;;;;;;30.80;22.80;;;;;;;7.99;69.25;95706.13;4896914;29;20044;-78
2021/10/30 03:28:40;;;;;;;33.97;22.13;;;;;;;8.02;69.12;95705.75;4897107;29;20449;-77
2021/10/30 03:31:05;;;;;;;40.40;23.48;;;;;;;7.98;69.46;95709.72;4881674;29;20056;-77
2021/10/30 03:33:31;;;;;;;41.47;22.10;;;;;;;7.96;69.64;95711.69;4865600;29;20036;-78
2021/10/30 03:35:56;;;;;;;38.28;22.88;;;;;;;7.90;69.64;95707.28;4881479;29;20032;-78
2021/10/30 03:38:22;;;;;;;31.25;21.60;;;;;;;7.88;69.52;95704.09;4882213;29;20103;-77
2021/10/30 03:40:47;;;;;;;37.80;22.80;;;;;;;7.78;70.33;95700.06;4897460;29;20040;-77
2021/10/30 03:43:13;;;;;;;117.97;71.25;;;;;;;7.70;70.07;95702.81;4880526;29;20759;-78
2021/10/30 03:45:39;;;;;;;47.65;27.90;;;;;;;7.63;70.42;95706.34;4914479;29;20024;-77
2021/10/30 03:48:05;;;;;;;54.30;27.95;;;;;;;7.48;71.01;95706.47;4897187;29;20048;-77
2021/10/30 03:50:30;;;;;;;46.42;25.85;;;;;;;7.42;71.16;95715.00;4897041;29;20083;-77
2021/10/30 03:52:56;;;;;;;37.40;22.75;;;;;;;7.43;71.02;95716.59;4913726;29;20040;-77
2021/10/30 03:55:21;;;;;;;29.10;22.30;;;;;;;7.43;71.04;95711.41;4913327;29;20040;-77
2021/10/30 03:57:46;;;;;;;37.90;23.40;;;;;;;7.53;70.68;95714.47;4913305;29;20147;-77
2021/10/30 04:00:12;;;;;;;36.95;22.83;;;;;;;7.56;70.81;95711.50;4913857;29;20042;-77
2021/10/30 04:02:38;;;;;;;36.40;22.30;;;;;;;7.46;70.88;95711.03;4914064;29;20044;-77
2021/10/30 04:05:04;;;;;;;38.22;23.75;;;;;;;7.36;71.53;95711.38;4912748;29;20036;-77
2021/10/30 04:07:29;;;;;;;35.92;23.13;;;;;;;7.42;71.26;95715.00;4913952;29;20040;-77
2021/10/30 04:09:54;;;;;;;32.83;23.25;;;;;;;7.46;71.38;95716.22;4914221;29;20096;-78
2021/10/30 04:12:20;;;;;;;32.88;22.95;;;;;;;7.48;70.96;95712.47;4897584;29;20036;-77
2021/10/30 04:14:45;;;;;;;34.35;22.80;;;;;;;7.52;71.09;95707.69;4915229;29;20103;-77
2021/10/30 04:17:11;;;;;;;32.47;21.70;;;;;;;7.53;70.78;95707.50;4899822;29;20024;-78
2021/10/30 04:19:36;;;;;;;31.05;22.80;;;;;;;7.53;70.43;95707.50;4891549;29;20063;-78
2021/10/30 04:22:02;;;;;;;35.63;22.08;;;;;;;7.49;70.61;95705.50;4912715;29;20088;-78
2021/10/30 04:24:27;;;;;;;34.50;22.52;;;;;;;7.45;71.13;95704.25;4928539;29;20044;-78
2021/10/30 04:27:03;;;;;;;32.80;22.33;;;;;;;7.45;71.23;95704.25;4925003;29;20032;-78
2021/10/30 04:29:29;;;;;;;31.17;21.80;;;;;;;7.44;70.89;95706.03;4916506;29;20049;-77
2021/10/30 04:31:58;;;;;;;33.80;22.77;;;;;;;7.36;71.68;95695.06;4917357;29;20037;-77
2021/10/30 04:34:33;;;;;;;31.38;22.38;;;;;;;7.34;71.95;95700.44;4917103;29;20112;-77
2021/10/30 04:36:59;;;;;;;29.45;21.35;;;;;;;7.36;71.54;95705.41;4929378;29;20119;-77
2021/10/30 04:39:24;;;;;;;34.25;22.98;;;;;;;7.37;71.81;95707.00;4926117;29;20049;-78
2021/10/30 04:41:50;;;;;;;29.92;22.88;;;;;;;7.36;71.54;95701.03;4919416;29;20047;-78
2021/10/30 04:44:16;;;;;;;32.25;22.52;;;;;;;7.38;71.59;95698.25;4903181;29;20040;-77
2021/10/30 04:46:41;;;;;;;32.45;22.40;;;;;;;7.32;71.97;95710.19;4907265;29;20036;-77
2021/10/30 04:49:07;;;;;;;35.58;23.50;;;;;;;7.35;71.84;95698.66;4924667;29;20037;-77
2021/10/30 04:51:32;;;;;;;32.85;23.23;;;;;;;7.29;71.90;95699.38;4919260;29;20033;-77
2021/10/30 04:56:55;;;;;;;37.88;24.65;;;;;;;7.19;71.83;95699.72;4886239;29;20059;-77
2021/10/30 04:59:21;;;;;;;38.33;24.65;;;;;;;7.12;72.23;95707.44;4886982;29;20408;-77
2021/10/30 05:01:46;;;;;;;37.72;24.65;;;;;;;7.15;72.06;95701.88;4887767;29;20048;-77
2021/10/30 05:04:12;;;;;;;36.15;24.27;;;;;;;7.19;71.58;95694.56;4894230;29;20040;-78
2021/10/30 05:06:37;;;;;;;38.15;23.75;;;;;;;7.21;71.68;95698.56;4903857;29;20045;-77
2021/10/30 05:09:03;;;;;;;33.25;23.88;;;;;;;7.28;71.55;95708.13;4894124;29;20392;-77
2021/10/30 05:11:28;;;;;;;34.92;23.55;;;;;;;7.32;71.09;95709.34;4878736;29;20037;-77
2021/10/30 05:13:53;;;;;;;34.03;23.25;;;;;;;7.32;71.25;95706.75;4877773;29;20618;-77
2021/10/30 05:16:19;;;;;;;32.17;21.88;;;;;;;7.26;71.84;95700.56;4884396;29;20585;-77
2021/10/30 05:18:44;;;;;;;38.95;22.80;;;;;;;7.37;71.21;95712.19;4890438;29;20104;-77
2021/10/30 05:21:10;;;;;;;40.38;24.05;;;;;;;7.37;70.98;95713.00;4908309;29;20080;-78
2021/10/30 05:23:38;;;;;;;39.63;24.75;;;;;;;7.35;71.10;95703.81;4888700;29;20029;-78
2021/10/30 05:26:07;;;;;;;39.67;23.02;;;;;;;7.35;71.33;95696.06;4911012;29;20044;-78
2021/10/30 05:28:32;;;;;;;37.58;24.70;;;;;;;7.29;71.10;95710.53;4898714;29;20025;-78
2021/10/30 05:30:58;;;;;;;40.20;25.33;;;;;;;7.08;71.76;95708.00;4902524;29;20037;-79
2021/10/30 05:33:23;;;;;;;36.85;24.95;;;;;;;7.28;71.52;95708.94;4878084;29;20037;-79
2021/10/30 05:35:49;;;;;;;32.38;23.67;;;;;;;7.44;71.15;95707.84;4888494;29;20045;-78
2021/10/30 05:38:16;;;;;;;41.25;24.50;;;;;;;7.62;70.93;95705.56;4909330;29;20403;-77
2021/10/30 05:40:41;;;;;;;30.42;22.35;;;;;;;7.89;69.32;95710.88;4887544;29;20067;-77
2021/10/30 05:43:07;;;;;;;40.72;23.40;;;;;;;8.06;69.25;95712.13;4886198;29;20401;-77
2021/10/30 05:45:35;;;;;;;33.90;22.05;;;;;;;8.33;68.45;95711.25;4892697;29;20044;-79
2021/10/30 05:48:02;;;;;;;40.28;20.65;;;;;;;8.53;67.77;95716.50;4893702;29;20040;-77
2021/10/30 05:50:27;;;;;;;26.90;20.77;;;;;;;8.78;66.82;95710.72;4897682;29;20053;-78
2021/10/30 05:52:53;;;;;;;34.38;21.80;;;;;;;8.90;66.02;95709.16;4903873;29;20041;-78
2021/10/30 05:55:18;;;;;;;27.10;19.63;;;;;;;9.18;64.74;95706.38;4907989;29;20111;-77
2021/10/30 05:57:44;;;;;;;29.45;20.38;;;;;;;9.59;63.69;95708.69;4897815;29;20040;-78
2021/10/30 06:00:10;;;;;;;28.45;19.98;;;;;;;9.93;61.76;95710.22;4896854;29;20047;-77
2021/10/30 06:02:36;;;;;;;29.10;17.45;;;;;;;10.13;61.70;95708.31;4894301;29;20515;-77
2021/10/30 06:05:13;;;;;;;;;;;;;;;;;;;;;
2021/10/30 06:07:39;;;;;;;34.25;19.42;;;;;;;10.31;60.17;95717.28;4900626;29;20113;-77
2021/10/30 06:10:05;;;;;;;24.95;18.70;;;;;;;10.29;60.60;95714.09;4899495;29;20447;-77
2021/10/30 06:12:33;;;;;;;30.33;18.05;;;;;;;10.50;59.60;95721.56;4888167;29;20088;-77
2021/10/30 06:14:58;;;;;;;31.13;18.92;;;;;;;10.61;59.26;95723.53;4893103;29;20061;-77
2021/10/30 06:17:23;;;;;;;31.33;19.33;;;;;;;10.79;58.11;95721.00;4899175;29;20076;-77
2021/10/30 06:19:49;;;;;;;33.13;18.27;;;;;;;10.90;57.91;95721.31;4897549;29;20095;-79
2021/10/30 06:22:14;;;;;;;26.48;19.02;;;;;;;11.09;56.89;95720.38;4907517;29;20089;-79
2021/10/30 06:24:41;;;;;;;25.85;18.27;;;;;;;11.23;56.46;95724.47;4903572;29;20486;-79
2021/10/30 06:27:07;;;;;;;29.88;19.55;;;;;;;11.29;56.39;95717.63;4892553;29;20029;-79
2021/10/30 06:29:33;;;;;;;32.35;19.38;;;;;;;11.08;56.48;95713.59;4892339;29;20104;-78
2021/10/30 06:31:59;;;;;;;31.60;20.48;;;;;;;10.99;57.22;95715.66;4908972;29;20060;-78
2021/10/30 06:34:24;;;;;;;29.08;20.10;;;;;;;11.07;56.86;95712.00;4905234;29;20032;-78
2021/10/30 06:36:50;;;;;;;30.70;19.30;;;;;;;11.16;56.40;95725.53;4907370;29;20052;-79
2021/10/30 06:39:15;;;;;;;34.35;18.48;;;;;;;11.18;57.12;95728.72;4896849;29;20041;-79
2021/10/30 06:41:40;;;;;;;29.20;16.83;;;;;;;11.15;56.87;95718.72;4897487;29;20077;-79
2021/10/30 06:44:16;;;;;;;48.08;19.30;;;;;;;11.45;55.97;95729.31;4881389;29;20529;-81
2021/10/30 06:46:42;;;;;;;26.67;17.88;;;;;;;11.59;54.90;95721.16;4890686;29;20036;-79
2021/10/30 06:49:10;;;;;;;25.67;17.05;;;;;;;11.77;54.62;95725.56;4889171;29;20069;-78
2021/10/30 06:51:35;;;;;;;35.13;18.55;;;;;;;12.06;54.34;95728.50;4893093;29;20033;-81
2021/10/30 06:54:01;;;;;;;20.80;16.33;;;;;;;12.13;54.56;95734.44;4894100;29;20061;-82
2021/10/30 06:56:27;;;;;;;23.02;15.25;;;;;;;12.25;53.88;95743.13;4885494;29;20470;-82
2021/10/30 06:58:52;;;;;;;27.05;16.02;;;;;;;12.19;53.46;95725.72;4885033;29;20037;-81
2021/10/30 07:01:17;;;;;;;22.08;15.75;;;;;;;12.11;53.98;95729.44;4885098;29;20095;-80
2021/10/30 07:03:43;;;;;;;24.00;15.65;;;;;;;12.12;53.67;95725.81;4906252;29;20060;-79
2021/10/30 07:06:10;;;;;;;21.83;15.73;;;;;;;12.16;53.70;95736.59;4879745;29;20084;-80
2021/10/30 07:08:36;;;;;;;23.80;15.70;;;;;;;12.13;53.99;95731.81;4895691;29;20061;-83
2021/10/30 07:11:01;;;;;;;28.50;16.80;;;;;;;11.93;54.16;95727.63;4906917;29;20029;-81
2021/10/30 07:13:27;;;;;;;21.02;15.93;;;;;;;11.78;55.07;95734.97;4899052;29;20040;-83
2021/10/30 07:15:52;;;;;;;22.13;14.90;;;;;;;11.81;54.76;95729.38;4880390;29;20060;-68
2021/10/30 07:18:19;;;;;;;26.25;15.93;;;;;;;11.93;55.27;95735.47;4885145;29;20041;-70
2021/10/30 07:20:44;;;;;;;27.80;15.32;;;;;;;11.82;54.88;95730.16;4885646;29;20041;-70
2021/10/30 07:23:09;;;;;;;27.25;16.75;;;;;;;11.78;55.15;95721.16;4899545;29;21024;-71
2021/10/30 07:25:35;;;;;;;29.00;16.23;;;;;;;11.64;55.59;95721.28;4884220;29;20032;-70
2021/10/30 07:28:00;;;;;;;24.83;16.92;;;;;;;11.76;55.58;95713.56;4876378;29;20090;-71
2021/10/30 07:30:26;;;;;;;29.00;16.77;;;;;;;11.97;54.88;95712.34;4885936;29;20044;-72
2021/10/30 07:32:53;;;;;;;30.45;15.60;;;;;;;12.03;54.91;95712.25;4876201;29;20032;-76
2021/10/30 07:35:22;;;;;;;23.70;15.70;;;;;;;12.01;55.24;95710.91;4888881;29;20040;-82
2021/10/30 07:37:48;;;;;;;22.48;15.80;;;;;;;12.08;54.53;95710.84;4878779;29;20040;-81
2021/10/30 07:40:14;;;;;;;28.35;15.30;;;;;;;12.23;54.05;95716.47;4886459;29;20148;-79
2021/10/30 07:42:41;;;;;;;24.52;13.88;;;;;;;12.42;53.67;95710.19;4893120;29;20548;-82
2021/10/30 07:45:07;;;;;;;19.52;13.43;;;;;;;12.50;52.91;95716.91;4904535;29;20557;-79
2021/10/30 07:47:32;;;;;;;18.00;13.30;;;;;;;12.48;52.77;95709.31;4876798;29;20071;-79
2021/10/30 07:49:58;;;;;;;18.77;13.10;;;;;;;12.45;52.81;95719.41;4880887;29;20040;-78
2021/10/30 07:52:24;;;;;;;17.23;12.88;;;;;;;12.42;52.99;95705.00;4885237;29;20036;-78
2021/10/30 07:54:50;;;;;;;19.05;12.95;;;;;;;12.41;52.80;95708.63;4859571;29;20079;-79
2021/10/30 07:57:15;;;;;;;15.13;12.40;;;;;;;12.49;51.76;95710.91;4872982;29;20526;-80
2021/10/30 07:59:41;;;;;;;15.43;11.43;;;;;;;12.57;51.43;95708.00;4891282;29;20037;-82
2021/10/30 08:02:07;;;;;;;14.30;11.60;;;;;;;12.56;51.61;95716.84;4894252;29;20036;-77
2021/10/30 08:04:36;;;;;;;16.50;11.50;;;;;;;12.45;52.21;95703.75;4876044;29;20156;-79
2021/10/30 08:07:02;;;;;;;19.52;11.45;;;;;;;12.23;52.59;95711.25;4881476;29;20037;-79
2021/10/30 08:09:28;;;;;;;18.17;10.60;;;;;;;12.24;52.54;95698.00;4879848;29;20582;-79
2021/10/30 08:11:54;;;;;;;18.30;11.10;;;;;;;12.27;52.52;95699.38;4903575;29;20056;-80
2021/10/30 08:14:19;;;;;;;15.77;11.13;;;;;;;12.19;52.49;95694.44;4889362;29;20039;-80
2021/10/30 08:16:44;;;;;;;24.08;13.70;;;;;;;12.17;52.62;95686.03;4868432;29;20033;-80
2021/10/30 08:19:10;;;;;;;16.20;11.50;;;;;;;12.23;52.14;95696.41;4891129;29;20036;-79
2021/10/30 08:21:36;;;;;;;19.20;9.73;;;;;;;12.17;51.94;95688.66;4874973;29;20112;-79
2021/10/30 08:24:03;;;;;;;18.23;10.10;;;;;;;12.24;51.55;95691.97;4886636;29;20119;-78
2021/10/30 08:26:29;;;;;;;9.20;8.30;;;;;;;12.26;50.56;95710.81;4882295;29;20041;-80
2021/10/30 08:28:54;;;;;;;13.35;8.43;;;;;;;12.23;50.55;95690.41;4881032;29;20036;-79
2021/10/30 08:31:20;;;;;;;34.13;9.25;;;;;;;12.47;50.09;95688.66;4882623;29;20032;-78
2021/10/30 08:33:46;;;;;;;9.43;8.35;;;;;;;12.57;49.80;95692.34;4890256;29;20025;-76
2021/10/30 08:36:12;;;;;;;10.32;7.40;;;;;;;12.73;48.71;95690.13;4890568;29;20040;-79
2021/10/30 08:38:37;;;;;;;14.50;8.07;;;;;;;12.88;47.98;95683.44;4876750;29;20025;-79
2021/10/30 08:41:03;;;;;;;12.10;8.15;;;;;;;12.84;48.26;95686.72;4875713;29;20045;-77
2021/10/30 08:43:28;;;;;;;9.95;8.13;;;;;;;12.74;48.53;95689.09;4879027;29;20025;-78
2021/10/30 08:45:55;;;;;;;13.30;8.65;;;;;;;12.63;48.76;95686.22;4894985;29;20036;-78
2021/10/30 08:48:21;;;;;;;10.40;8.18;;;;;;;12.53;48.88;95685.19;4897891;29;20025;-77
2021/10/30 08:50:47;;;;;;;14.55;8.63;;;;;;;12.29;49.65;95715.59;4883185;29;20048;-79
2021/10/30 08:53:12;;;;;;;10.35;8.90;;;;;;;12.07;49.67;95681.38;4891244;29;20041;-77
2021/10/30 08:55:38;;;;;;;15.10;8.77;;;;;;;12.00;49.64;95676.22;4892259;29;20037;-77
2021/10/30 08:58:08;;;;;;;12.20;8.70;;;;;;;12.01;50.14;95672.59;4894834;29;20040;-78
2021/10/30 09:00:41;;;;;;;12.45;9.23;;;;;;;12.09;50.18;95662.91;4896399;29;20044;-77
2021/10/30 09:03:06;;;;;;;13.15;9.65;;;;;;;12.34;49.88;95653.13;4890645;29;20116;-78
2021/10/30 09:05:32;;;;;;;14.05;9.48;;;;;;;12.47;48.32;95650.34;4891155;29;20037;-76
2021/10/30 09:08:02;;;;;;;22.30;9.18;;;;;;;12.53;47.90;95654.69;4883729;29;20032;-78
2021/10/30 09:10:30;;;;;;;12.00;9.18;;;;;;;12.51;47.77;95654.06;4882440;29;20529;-77
2021/10/30 09:12:57;;;;;;;16.40;11.98;;;;;;;12.44;47.84;95670.84;4892292;29;20063;-78
2021/10/30 09:15:33;;;;;;;17.00;13.52;;;;;;;12.54;47.49;95640.59;4879463;29;20053;-79
2021/10/30 09:17:59;;;;;;;18.92;10.65;;;;;;;12.65;47.73;95640.84;4895952;29;20477;-79
2021/10/30 09:20:32;;;;;;;35.92;18.05;;;;;;;12.48;47.26;95649.31;4904224;29;20071;-80
2021/10/30 09:22:57;;;;;;;;;;;;;;;12.50;47.39;95634.22;4896962;29;20131;-78
2021/10/30 09:25:22;;;;;;;9.65;8.65;;;;;;;12.42;47.16;95637.16;4893300;29;20411;-78
2021/10/30 09:27:49;;;;;;;11.05;8.60;;;;;;;12.38;46.87;95636.03;4887127;29;20119;-78
2021/10/30 09:30:18;;;;;;;12.65;9.50;;;;;;;12.41;47.24;95630.38;4896063;29;20508;-77
2021/10/30 09:32:50;;;;;;;9.63;8.63;;;;;;;12.47;47.20;95642.50;4895712;29;20068;-75
2021/10/30 09:35:21;;;;;;;10.27;9.13;;;;;;;12.47;46.76;95639.91;4880828;29;20037;-78
2021/10/30 09:37:46;;;;;;;16.15;9.10;;;;;;;12.48;47.00;95631.06;4877810;29;20032;-77
2021/10/30 09:40:25;;;;;;;11.18;8.55;;;;;;;12.56;46.97;95622.91;4890080;29;20041;-77
2021/10/30 09:43:13;;;;;;;17.83;9.10;;;;;;;12.28;46.86;95620.13;4905183;29;20077;-81
2021/10/30 09:45:42;;;;;;;16.75;9.65;;;;;;;12.30;47.08;95629.31;4878579;29;20119;-77
2021/10/30 09:48:11;;;;;;;12.65;8.95;;;;;;;12.37;46.12;95625.81;4889693;29;20554;-78
2021/10/30 09:50:37;;;;;;;15.68;9.13;;;;;;;12.51;46.26;95612.34;4904400;29;20081;-78
2021/10/30 09:53:24;;;;;;;11.52;9.43;;;;;;;12.49;45.97;95622.19;4890305;29;20032;-78
2021/10/30 09:56:04;;;;;;;14.43;9.10;;;;;;;12.59;45.74;95622.47;4901923;29;20469;-78
2021/10/30 09:58:36;;;;;;;9.70;8.70;;;;;;;12.44;45.55;95608.25;4877801;29;20133;-77
2021/10/30 10:01:06;;;;;;;20.60;8.68;;;;;;;12.45;45.69;95621.06;4890696;29;20051;-77
2021/10/30 10:03:32;;;;;;;13.88;9.90;;;;;;;12.35;46.57;95594.72;4905336;29;20048;-78
2021/10/30 10:06:00;;;;;;;27.17;9.18;;;;;;;12.30;45.67;95603.22;4907516;29;20036;-77
2021/10/30 10:08:25;;;;;;;10.63;9.52;;;;;;;12.21;45.97;95588.94;4895705;29;20453;-78
2021/10/30 10:10:55;;;;;;;10.82;9.65;;;;;;;12.34;46.35;95580.09;4903357;29;20041;-81
2021/10/30 10:13:21;;;;;;;23.38;9.52;;;;;;;12.50;46.27;95576.84;4906964;29;20128;-80
2021/10/30 10:15:47;;;;;;;14.02;9.02;;;;;;;12.66;45.58;95577.19;4900124;29;20168;-80
2021/10/30 10:18:12;;;;;;;16.67;9.15;;;;;;;12.75;45.31;95573.25;4885954;29;20037;-80
2021/10/30 10:20:38;;;;;;;11.90;9.80;;;;;;;12.72;44.96;95577.09;4885110;29;20037;-80
2021/10/30 10:23:03;;;;;;;11.15;9.00;;;;;;;12.77;44.67;95569.38;4894655;29;20032;-80
2021/10/30 10:25:32;;;;;;;10.35;9.27;;;;;;;12.73;44.56;95559.63;4896455;29;20493;-79
2021/10/30 10:28:33;;;;;;;10.98;8.70;;;;;;;12.74;45.32;95556.00;4900027;29;20051;-79
2021/10/30 10:31:10;;;;;;;14.93;9.68;;;;;;;12.84;45.05;95556.22;4906250;29;20028;-81
2021/10/30 10:33:36;;;;;;;13.93;9.85;;;;;;;12.76;44.55;95564.41;4897728;29;20036;-79
2021/10/30 10:36:13;;;;;;;9.88;8.98;;;;;;;12.75;44.76;95544.53;4901186;29;20115;-77
2021/10/30 10:38:57;;;;;;;9.90;7.70;;;;;;;12.71;44.33;95540.81;4889869;29;20037;-81
2021/10/30 10:41:38;;;;;;;14.05;7.90;;;;;;;12.69;43.87;95548.03;4901496;29;20115;-88
2021/10/30 10:44:04;;;;;;;11.50;7.93;;;;;;;12.75;44.25;95539.31;4898460;29;20126;-87
2021/10/30 10:46:30;;;;;;;11.73;8.05;;;;;;;12.81;44.29;95531.38;4898800;29;20536;-87
2021/10/30 10:49:28;;;;;;;12.60;7.95;;;;;;;12.91;44.03;95530.81;4925360;23;20196;-86
2021/10/30 10:52:16;;;;;;;10.60;8.95;;;;;;;12.94;44.03;95527.72;4901642;29;20290;-86
2021/10/30 10:55:03;;;;;;;9.43;7.70;;;;;;;13.05;43.89;95521.72;4883938;29;20068;-86
2021/10/30 10:57:29;;;;;;;9.20;7.47;;;;;;;13.11;43.86;95531.22;4879871;29;20100;-87
2021/10/30 11:00:16;;;;;;;8.70;7.15;;;;;;;13.01;43.43;95530.22;4883985;29;20124;-88
2021/10/30 11:02:52;;;;;;;9.95;7.13;;;;;;;12.90;43.66;95524.78;4860709;29;20044;-88
2021/10/30 11:05:19;;;;;;;8.60;7.03;;;;;;;13.03;43.33;95513.31;4885383;29;20045;-87
2021/10/30 11:07:50;;;;;;;10.15;6.95;;;;;;;13.07;43.48;95522.28;4886905;29;20041;-87
2021/10/30 11:10:19;;;;;;;9.27;7.00;;;;;;;13.04;43.43;95507.06;4880068;29;20444;-87
2021/10/30 11:13:00;;;;;;;8.38;7.00;;;;;;;12.97;43.61;95514.22;4862775;29;20037;-87
2021/10/30 11:15:44;;;;;;;19.92;6.78;;;;;;;13.05;43.04;95521.72;4878101;29;20644;-86
2021/10/30 11:21:17;;;;;;;11.45;6.78;;;;;;;13.17;42.67;95516.44;4937866;29;20079;-87
2021/10/30 11:23:54;;;;;;;8.57;6.22;;;;;;;13.30;42.73;95494.53;5010097;23;20112;-87
2021/10/30 11:26:24;;;;;;;7.97;6.28;;;;;;;13.36;42.20;95507.50;4907873;29;20453;-87
2021/10/30 11:29:10;;;;;;;6.80;6.13;;;;;;;13.36;41.55;95496.25;4910488;29;20099;-87
2021/10/30 11:31:35;;;;;;;6.65;6.00;;;;;;;13.23;41.93;95499.91;4891243;29;20041;-87
2021/10/30 11:34:02;;;;;;;21.33;5.70;;;;;;;13.17;42.30;95488.50;4876335;29;20028;-87
2021/10/30 11:36:28;;;;;;;6.13;5.53;;;;;;;13.16;41.72;95502.59;4886124;29;20044;-87